sensor_id;sensor_type;location;lat;lon;timestamp;P1;durP1;ratioP1;P2;durP2;ratioP2
22363;SDS011;11349;53.412;-1.328;2022-08-21T00:00:13;10.38;;;2.03;;
22363;SDS011;11349;53.412;-1.328;2022-08-21T00:02:46;7.68;;;2.10;;
22363;SDS011;11349;53.412;-1.328;2022-08-21T00:05:15;8.00;;;2.72;;
22363;SDS011;11349;53.412;-1.328;2022-08-21T00:07:41;7.28;;;2.13;;
22363;SDS011;11349;53.412;-1.328;2022-08-21T00:10:07;8.55;;;2.10;;
22363;SDS011;11349;53.412;-1.328;2022-08-21T00:12:34;10.30;;;2.25;;
22363;SDS011;11349;53.412;-1.328;2022-08-21T00:15:00;6.97;;;1.80;;
22363;SDS011;11349;53.412;-1.328;2022-08-21T00:17:26;8.05;;;2.10;;
22363;SDS011;11349;53.412;-1.328;2022-08-21T00:19:52;14.02;;;2.72;;
22363;SDS011;11349;53.412;-1.328;2022-08-21T00:22:18;6.75;;;1.95;;
22363;SDS011;11349;53.412;-1.328;2022-08-21T00:24:43;10.38;;;2.25;;
22363;SDS011;11349;53.412;-1.328;2022-08-21T00:27:09;7.30;;;1.70;;
22363;SDS011;11349;53.412;-1.328;2022-08-21T00:29:35;6.15;;;1.85;;
22363;SDS011;11349;53.412;-1.328;2022-08-21T00:32:01;8.30;;;2.10;;
22363;SDS011;11349;53.412;-1.328;2022-08-21T00:34:27;8.55;;;1.92;;
22363;SDS011;11349;53.412;-1.328;2022-08-21T00:36:53;6.55;;;2.13;;
22363;SDS011;11349;53.412;-1.328;2022-08-21T00:39:18;11.52;;;2.58;;
22363;SDS011;11349;53.412;-1.328;2022-08-21T00:41:44;7.53;;;2.60;;
22363;SDS011;11349;53.412;-1.328;2022-08-21T00:44:11;8.48;;;1.92;;
22363;SDS011;11349;53.412;-1.328;2022-08-21T00:46:39;8.45;;;2.35;;
22363;SDS011;11349;53.412;-1.328;2022-08-21T00:49:06;11.25;;;2.00;;
22363;SDS011;11349;53.412;-1.328;2022-08-21T00:51:50;6.93;;;1.90;;
22363;SDS011;11349;53.412;-1.328;2022-08-21T00:54:20;9.32;;;2.03;;
22363;SDS011;11349;53.412;-1.328;2022-08-21T00:56:52;6.90;;;1.73;;
22363;SDS011;11349;53.412;-1.328;2022-08-21T00:59:20;8.32;;;2.28;;
22363;SDS011;11349;53.412;-1.328;2022-08-21T01:01:48;10.30;;;2.90;;
22363;SDS011;11349;53.412;-1.328;2022-08-21T01:04:15;10.27;;;2.50;;
22363;SDS011;11349;53.412;-1.328;2022-08-21T01:06:42;7.43;;;1.92;;
22363;SDS011;11349;53.412;-1.328;2022-08-21T01:09:08;9.27;;;2.05;;
22363;SDS011;11349;53.412;-1.328;2022-08-21T01:11:35;8.45;;;2.15;;
22363;SDS011;11349;53.412;-1.328;2022-08-21T01:14:02;8.07;;;2.45;;
22363;SDS011;11349;53.412;-1.328;2022-08-21T01:16:27;11.02;;;2.40;;
22363;SDS011;11349;53.412;-1.328;2022-08-21T01:18:54;11.02;;;2.10;;
22363;SDS011;11349;53.412;-1.328;2022-08-21T01:21:22;12.18;;;3.08;;
22363;SDS011;11349;53.412;-1.328;2022-08-21T01:23:52;9.65;;;2.38;;
22363;SDS011;11349;53.412;-1.328;2022-08-21T01:26:20;10.18;;;2.60;;
22363;SDS011;11349;53.412;-1.328;2022-08-21T01:31:42;8.65;;;2.40;;
22363;SDS011;11349;53.412;-1.328;2022-08-21T01:34:08;9.32;;;2.20;;
22363;SDS011;11349;53.412;-1.328;2022-08-21T01:36:35;12.82;;;3.08;;
22363;SDS011;11349;53.412;-1.328;2022-08-21T01:39:02;8.85;;;2.33;;
22363;SDS011;11349;53.412;-1.328;2022-08-21T01:41:29;12.73;;;3.45;;
22363;SDS011;11349;53.412;-1.328;2022-08-21T01:43:55;13.73;;;2.40;;
22363;SDS011;11349;53.412;-1.328;2022-08-21T01:46:21;9.15;;;2.30;;
22363;SDS011;11349;53.412;-1.328;2022-08-21T01:48:47;11.48;;;2.40;;
22363;SDS011;11349;53.412;-1.328;2022-08-21T01:51:13;8.18;;;2.63;;
22363;SDS011;11349;53.412;-1.328;2022-08-21T01:53:39;7.53;;;2.65;;
22363;SDS011;11349;53.412;-1.328;2022-08-21T01:56:07;5.57;;;2.00;;
22363;SDS011;11349;53.412;-1.328;2022-08-21T01:58:34;8.55;;;2.67;;
22363;SDS011;11349;53.412;-1.328;2022-08-21T02:01:01;9.65;;;2.13;;
22363;SDS011;11349;53.412;-1.328;2022-08-21T02:03:28;6.90;;;2.53;;
22363;SDS011;11349;53.412;-1.328;2022-08-21T02:05:55;9.98;;;2.90;;
22363;SDS011;11349;53.412;-1.328;2022-08-21T02:08:22;14.85;;;2.38;;
22363;SDS011;11349;53.412;-1.328;2022-08-21T02:10:49;12.65;;;2.80;;
22363;SDS011;11349;53.412;-1.328;2022-08-21T02:13:16;12.40;;;2.22;;
22363;SDS011;11349;53.412;-1.328;2022-08-21T02:15:43;7.20;;;2.25;;
22363;SDS011;11349;53.412;-1.328;2022-08-21T02:18:09;10.93;;;2.65;;
22363;SDS011;11349;53.412;-1.328;2022-08-21T02:20:38;7.47;;;2.20;;
22363;SDS011;11349;53.412;-1.328;2022-08-21T02:23:07;9.65;;;2.45;;
22363;SDS011;11349;53.412;-1.328;2022-08-21T02:25:36;7.05;;;2.05;;
22363;SDS011;11349;53.412;-1.328;2022-08-21T02:28:03;10.27;;;2.30;;
22363;SDS011;11349;53.412;-1.328;2022-08-21T02:30:37;8.52;;;1.98;;
22363;SDS011;11349;53.412;-1.328;2022-08-21T02:33:05;9.18;;;2.25;;
22363;SDS011;11349;53.412;-1.328;2022-08-21T02:35:32;6.40;;;2.42;;
22363;SDS011;11349;53.412;-1.328;2022-08-21T02:37:59;9.65;;;3.25;;
22363;SDS011;11349;53.412;-1.328;2022-08-21T02:40:29;8.30;;;2.70;;
22363;SDS011;11349;53.412;-1.328;2022-08-21T02:42:59;9.43;;;2.28;;
22363;SDS011;11349;53.412;-1.328;2022-08-21T02:45:26;11.63;;;2.90;;
22363;SDS011;11349;53.412;-1.328;2022-08-21T02:47:55;10.00;;;2.60;;
22363;SDS011;11349;53.412;-1.328;2022-08-21T02:50:31;11.05;;;2.80;;
22363;SDS011;11349;53.412;-1.328;2022-08-21T02:52:58;12.98;;;2.72;;
22363;SDS011;11349;53.412;-1.328;2022-08-21T02:55:26;10.73;;;2.30;;
22363;SDS011;11349;53.412;-1.328;2022-08-21T02:57:55;8.35;;;2.40;;
22363;SDS011;11349;53.412;-1.328;2022-08-21T03:00:23;13.57;;;2.67;;
22363;SDS011;11349;53.412;-1.328;2022-08-21T03:02:51;10.10;;;2.60;;
22363;SDS011;11349;53.412;-1.328;2022-08-21T03:05:18;7.93;;;2.22;;
22363;SDS011;11349;53.412;-1.328;2022-08-21T03:07:45;10.43;;;3.10;;
22363;SDS011;11349;53.412;-1.328;2022-08-21T03:10:12;11.18;;;2.55;;
22363;SDS011;11349;53.412;-1.328;2022-08-21T03:12:39;16.00;;;3.22;;
22363;SDS011;11349;53.412;-1.328;2022-08-21T03:15:06;10.25;;;2.72;;
22363;SDS011;11349;53.412;-1.328;2022-08-21T03:17:34;11.95;;;2.65;;
22363;SDS011;11349;53.412;-1.328;2022-08-21T03:20:00;7.55;;;2.67;;
22363;SDS011;11349;53.412;-1.328;2022-08-21T03:22:28;13.05;;;2.40;;
22363;SDS011;11349;53.412;-1.328;2022-08-21T03:24:53;9.63;;;1.92;;
22363;SDS011;11349;53.412;-1.328;2022-08-21T03:27:19;10.48;;;2.50;;
22363;SDS011;11349;53.412;-1.328;2022-08-21T03:29:45;10.73;;;2.75;;
22363;SDS011;11349;53.412;-1.328;2022-08-21T03:32:11;11.55;;;2.13;;
22363;SDS011;11349;53.412;-1.328;2022-08-21T03:34:37;8.32;;;2.40;;
22363;SDS011;11349;53.412;-1.328;2022-08-21T03:37:05;14.27;;;2.95;;
22363;SDS011;11349;53.412;-1.328;2022-08-21T03:39:32;10.02;;;2.55;;
22363;SDS011;11349;53.412;-1.328;2022-08-21T03:41:59;6.57;;;2.13;;
22363;SDS011;11349;53.412;-1.328;2022-08-21T03:44:26;8.13;;;2.58;;
22363;SDS011;11349;53.412;-1.328;2022-08-21T03:46:55;11.23;;;2.42;;
22363;SDS011;11349;53.412;-1.328;2022-08-21T03:49:23;11.13;;;2.63;;
22363;SDS011;11349;53.412;-1.328;2022-08-21T03:51:49;8.95;;;2.15;;
22363;SDS011;11349;53.412;-1.328;2022-08-21T03:54:15;10.65;;;2.42;;
22363;SDS011;11349;53.412;-1.328;2022-08-21T03:56:41;10.25;;;2.60;;
22363;SDS011;11349;53.412;-1.328;2022-08-21T03:59:07;14.30;;;2.83;;
22363;SDS011;11349;53.412;-1.328;2022-08-21T04:01:33;8.63;;;2.47;;
22363;SDS011;11349;53.412;-1.328;2022-08-21T04:03:59;12.05;;;2.45;;
22363;SDS011;11349;53.412;-1.328;2022-08-21T04:06:25;10.80;;;2.60;;
22363;SDS011;11349;53.412;-1.328;2022-08-21T04:08:52;11.18;;;2.85;;
22363;SDS011;11349;53.412;-1.328;2022-08-21T04:11:18;10.02;;;2.58;;
22363;SDS011;11349;53.412;-1.328;2022-08-21T04:13:45;10.10;;;2.40;;
22363;SDS011;11349;53.412;-1.328;2022-08-21T04:16:11;13.10;;;2.50;;
22363;SDS011;11349;53.412;-1.328;2022-08-21T04:18:38;9.70;;;2.55;;
22363;SDS011;11349;53.412;-1.328;2022-08-21T04:21:04;11.23;;;3.35;;
22363;SDS011;11349;53.412;-1.328;2022-08-21T04:23:32;6.97;;;2.28;;
22363;SDS011;11349;53.412;-1.328;2022-08-21T04:25:59;9.82;;;2.58;;
22363;SDS011;11349;53.412;-1.328;2022-08-21T04:28:25;9.35;;;3.22;;
22363;SDS011;11349;53.412;-1.328;2022-08-21T04:30:52;11.52;;;2.78;;
22363;SDS011;11349;53.412;-1.328;2022-08-21T04:33:19;8.32;;;2.92;;
22363;SDS011;11349;53.412;-1.328;2022-08-21T04:35:45;13.50;;;3.22;;
22363;SDS011;11349;53.412;-1.328;2022-08-21T04:38:12;11.10;;;2.58;;
22363;SDS011;11349;53.412;-1.328;2022-08-21T04:40:37;10.32;;;2.72;;
22363;SDS011;11349;53.412;-1.328;2022-08-21T04:43:04;11.25;;;2.70;;
22363;SDS011;11349;53.412;-1.328;2022-08-21T04:45:33;7.47;;;2.10;;
22363;SDS011;11349;53.412;-1.328;2022-08-21T04:48:02;10.50;;;2.55;;
22363;SDS011;11349;53.412;-1.328;2022-08-21T04:50:47;10.88;;;2.60;;
22363;SDS011;11349;53.412;-1.328;2022-08-21T04:53:20;10.98;;;2.40;;
22363;SDS011;11349;53.412;-1.328;2022-08-21T04:55:57;11.27;;;3.05;;
22363;SDS011;11349;53.412;-1.328;2022-08-21T04:58:38;12.77;;;2.80;;
22363;SDS011;11349;53.412;-1.328;2022-08-21T05:01:08;10.40;;;2.75;;
22363;SDS011;11349;53.412;-1.328;2022-08-21T05:03:38;11.98;;;4.03;;
22363;SDS011;11349;53.412;-1.328;2022-08-21T05:06:07;10.93;;;3.33;;
22363;SDS011;11349;53.412;-1.328;2022-08-21T05:08:35;9.25;;;2.38;;
22363;SDS011;11349;53.412;-1.328;2022-08-21T05:11:03;9.82;;;2.60;;
22363;SDS011;11349;53.412;-1.328;2022-08-21T05:13:29;7.85;;;2.88;;
22363;SDS011;11349;53.412;-1.328;2022-08-21T05:15:56;8.93;;;2.53;;
22363;SDS011;11349;53.412;-1.328;2022-08-21T05:18:24;11.20;;;3.15;;
22363;SDS011;11349;53.412;-1.328;2022-08-21T05:20:50;9.63;;;2.70;;
22363;SDS011;11349;53.412;-1.328;2022-08-21T05:23:16;7.65;;;2.90;;
22363;SDS011;11349;53.412;-1.328;2022-08-21T05:25:42;11.23;;;3.05;;
22363;SDS011;11349;53.412;-1.328;2022-08-21T05:28:08;10.73;;;3.08;;
22363;SDS011;11349;53.412;-1.328;2022-08-21T05:30:35;10.82;;;3.22;;
22363;SDS011;11349;53.412;-1.328;2022-08-21T05:33:03;9.13;;;3.03;;
22363;SDS011;11349;53.412;-1.328;2022-08-21T05:35:30;8.55;;;3.33;;
22363;SDS011;11349;53.412;-1.328;2022-08-21T05:37:57;9.63;;;2.55;;
22363;SDS011;11349;53.412;-1.328;2022-08-21T05:40:25;8.65;;;2.72;;
22363;SDS011;11349;53.412;-1.328;2022-08-21T05:42:52;9.48;;;2.78;;
22363;SDS011;11349;53.412;-1.328;2022-08-21T05:45:20;7.97;;;2.72;;
22363;SDS011;11349;53.412;-1.328;2022-08-21T05:47:46;12.10;;;2.90;;
22363;SDS011;11349;53.412;-1.328;2022-08-21T05:50:12;12.10;;;3.05;;
22363;SDS011;11349;53.412;-1.328;2022-08-21T05:52:38;9.43;;;2.97;;
22363;SDS011;11349;53.412;-1.328;2022-08-21T05:55:04;10.98;;;2.92;;
22363;SDS011;11349;53.412;-1.328;2022-08-21T05:57:30;10.38;;;3.47;;
22363;SDS011;11349;53.412;-1.328;2022-08-21T05:59:56;8.43;;;2.65;;
22363;SDS011;11349;53.412;-1.328;2022-08-21T06:02:22;12.00;;;3.10;;
22363;SDS011;11349;53.412;-1.328;2022-08-21T06:04:48;9.93;;;2.75;;
22363;SDS011;11349;53.412;-1.328;2022-08-21T06:07:15;12.60;;;3.05;;
22363;SDS011;11349;53.412;-1.328;2022-08-21T06:09:41;9.05;;;2.83;;
22363;SDS011;11349;53.412;-1.328;2022-08-21T06:12:08;8.52;;;3.25;;
22363;SDS011;11349;53.412;-1.328;2022-08-21T06:14:35;13.18;;;3.33;;
22363;SDS011;11349;53.412;-1.328;2022-08-21T06:17:06;11.15;;;3.53;;
22363;SDS011;11349;53.412;-1.328;2022-08-21T06:19:33;13.52;;;3.65;;
22363;SDS011;11349;53.412;-1.328;2022-08-21T06:21:59;8.40;;;3.00;;
22363;SDS011;11349;53.412;-1.328;2022-08-21T06:24:25;9.32;;;2.75;;
22363;SDS011;11349;53.412;-1.328;2022-08-21T06:26:51;10.80;;;3.30;;
22363;SDS011;11349;53.412;-1.328;2022-08-21T06:29:18;12.88;;;3.25;;
22363;SDS011;11349;53.412;-1.328;2022-08-21T06:31:45;11.30;;;3.40;;
22363;SDS011;11349;53.412;-1.328;2022-08-21T06:34:13;11.70;;;3.90;;
22363;SDS011;11349;53.412;-1.328;2022-08-21T06:36:39;12.25;;;4.00;;
22363;SDS011;11349;53.412;-1.328;2022-08-21T06:39:05;10.15;;;3.08;;
22363;SDS011;11349;53.412;-1.328;2022-08-21T06:41:31;7.75;;;3.22;;
22363;SDS011;11349;53.412;-1.328;2022-08-21T06:43:57;15.60;;;3.33;;
22363;SDS011;11349;53.412;-1.328;2022-08-21T06:46:24;10.43;;;3.10;;
22363;SDS011;11349;53.412;-1.328;2022-08-21T06:48:52;10.60;;;2.90;;
22363;SDS011;11349;53.412;-1.328;2022-08-21T06:51:17;7.50;;;2.47;;
22363;SDS011;11349;53.412;-1.328;2022-08-21T06:53:44;9.70;;;2.35;;
22363;SDS011;11349;53.412;-1.328;2022-08-21T06:56:10;9.95;;;2.70;;
22363;SDS011;11349;53.412;-1.328;2022-08-21T06:58:36;8.15;;;2.15;;
22363;SDS011;11349;53.412;-1.328;2022-08-21T07:01:02;9.60;;;2.00;;
22363;SDS011;11349;53.412;-1.328;2022-08-21T07:03:30;8.45;;;2.00;;
22363;SDS011;11349;53.412;-1.328;2022-08-21T07:05:58;8.88;;;2.70;;
22363;SDS011;11349;53.412;-1.328;2022-08-21T07:08:25;8.27;;;2.40;;
22363;SDS011;11349;53.412;-1.328;2022-08-21T07:10:52;9.07;;;2.17;;
22363;SDS011;11349;53.412;-1.328;2022-08-21T07:13:20;12.77;;;2.50;;
22363;SDS011;11349;53.412;-1.328;2022-08-21T07:15:45;6.65;;;1.95;;
22363;SDS011;11349;53.412;-1.328;2022-08-21T07:18:11;8.38;;;2.70;;
22363;SDS011;11349;53.412;-1.328;2022-08-21T07:20:38;7.50;;;1.70;;
22363;SDS011;11349;53.412;-1.328;2022-08-21T07:23:07;9.43;;;2.22;;
22363;SDS011;11349;53.412;-1.328;2022-08-21T07:25:36;9.57;;;2.47;;
22363;SDS011;11349;53.412;-1.328;2022-08-21T07:28:02;9.48;;;2.38;;
22363;SDS011;11349;53.412;-1.328;2022-08-21T07:30:28;6.97;;;2.03;;
22363;SDS011;11349;53.412;-1.328;2022-08-21T07:32:54;11.80;;;3.03;;
22363;SDS011;11349;53.412;-1.328;2022-08-21T07:35:21;8.75;;;2.08;;
22363;SDS011;11349;53.412;-1.328;2022-08-21T07:37:48;5.85;;;1.65;;
22363;SDS011;11349;53.412;-1.328;2022-08-21T07:40:15;7.85;;;2.22;;
22363;SDS011;11349;53.412;-1.328;2022-08-21T07:42:43;8.30;;;2.30;;
22363;SDS011;11349;53.412;-1.328;2022-08-21T07:45:11;8.10;;;2.25;;
22363;SDS011;11349;53.412;-1.328;2022-08-21T07:47:38;9.80;;;2.58;;
22363;SDS011;11349;53.412;-1.328;2022-08-21T07:50:04;6.60;;;2.00;;
22363;SDS011;11349;53.412;-1.328;2022-08-21T07:52:32;6.03;;;1.90;;
22363;SDS011;11349;53.412;-1.328;2022-08-21T07:54:58;6.57;;;1.90;;
22363;SDS011;11349;53.412;-1.328;2022-08-21T07:57:25;9.55;;;2.15;;
22363;SDS011;11349;53.412;-1.328;2022-08-21T07:59:51;6.75;;;2.20;;
22363;SDS011;11349;53.412;-1.328;2022-08-21T08:02:26;6.97;;;1.85;;
22363;SDS011;11349;53.412;-1.328;2022-08-21T08:04:53;5.03;;;1.60;;
22363;SDS011;11349;53.412;-1.328;2022-08-21T08:07:19;7.60;;;2.30;;
22363;SDS011;11349;53.412;-1.328;2022-08-21T08:09:45;9.63;;;1.80;;
22363;SDS011;11349;53.412;-1.328;2022-08-21T08:12:11;5.03;;;1.95;;
22363;SDS011;11349;53.412;-1.328;2022-08-21T08:14:37;6.85;;;1.88;;
22363;SDS011;11349;53.412;-1.328;2022-08-21T08:17:03;8.55;;;2.63;;
22363;SDS011;11349;53.412;-1.328;2022-08-21T08:19:29;7.05;;;1.75;;
22363;SDS011;11349;53.412;-1.328;2022-08-21T08:21:55;5.25;;;1.50;;
22363;SDS011;11349;53.412;-1.328;2022-08-21T08:24:21;4.47;;;1.85;;
22363;SDS011;11349;53.412;-1.328;2022-08-21T08:26:47;4.63;;;2.10;;
22363;SDS011;11349;53.412;-1.328;2022-08-21T08:29:13;6.72;;;1.70;;
22363;SDS011;11349;53.412;-1.328;2022-08-21T08:31:38;7.72;;;2.20;;
22363;SDS011;11349;53.412;-1.328;2022-08-21T08:34:04;5.40;;;1.70;;
22363;SDS011;11349;53.412;-1.328;2022-08-21T08:36:31;5.75;;;1.88;;
22363;SDS011;11349;53.412;-1.328;2022-08-21T08:39:02;6.28;;;1.52;;
22363;SDS011;11349;53.412;-1.328;2022-08-21T08:41:29;5.18;;;1.50;;
22363;SDS011;11349;53.412;-1.328;2022-08-21T08:43:58;6.18;;;1.58;;
22363;SDS011;11349;53.412;-1.328;2022-08-21T08:46:36;7.35;;;1.33;;
22363;SDS011;11349;53.412;-1.328;2022-08-21T08:57:31;6.05;;;1.48;;
22363;SDS011;11349;53.412;-1.328;2022-08-21T09:00:00;4.78;;;1.50;;
22363;SDS011;11349;53.412;-1.328;2022-08-21T09:02:29;6.47;;;1.92;;
22363;SDS011;11349;53.412;-1.328;2022-08-21T09:04:55;5.63;;;1.38;;
22363;SDS011;11349;53.412;-1.328;2022-08-21T09:07:31;10.00;;;1.90;;
22363;SDS011;11349;53.412;-1.328;2022-08-21T09:12:45;4.00;;;1.63;;
22363;SDS011;11349;53.412;-1.328;2022-08-21T09:26:22;6.78;;;1.60;;
22363;SDS011;11349;53.412;-1.328;2022-08-21T09:28:51;5.35;;;1.45;;
22363;SDS011;11349;53.412;-1.328;2022-08-21T09:31:33;4.63;;;1.58;;
22363;SDS011;11349;53.412;-1.328;2022-08-21T09:34:06;4.60;;;1.38;;
22363;SDS011;11349;53.412;-1.328;2022-08-21T09:39:21;5.25;;;1.30;;
22363;SDS011;11349;53.412;-1.328;2022-08-21T09:41:59;5.97;;;1.25;;
22363;SDS011;11349;53.412;-1.328;2022-08-21T09:44:30;5.63;;;1.58;;
22363;SDS011;11349;53.412;-1.328;2022-08-21T09:46:58;5.93;;;1.73;;
22363;SDS011;11349;53.412;-1.328;2022-08-21T09:49:35;4.40;;;1.42;;
22363;SDS011;11349;53.412;-1.328;2022-08-21T09:52:04;7.30;;;2.05;;
22363;SDS011;11349;53.412;-1.328;2022-08-21T09:54:42;6.25;;;1.42;;
22363;SDS011;11349;53.412;-1.328;2022-08-21T10:00:07;7.45;;;1.90;;
22363;SDS011;11349;53.412;-1.328;2022-08-21T10:02:41;6.65;;;1.67;;
22363;SDS011;11349;53.412;-1.328;2022-08-21T10:05:14;3.28;;;1.17;;
22363;SDS011;11349;53.412;-1.328;2022-08-21T10:07:50;6.22;;;1.52;;
22363;SDS011;11349;53.412;-1.328;2022-08-21T10:10:18;8.15;;;1.67;;
22363;SDS011;11349;53.412;-1.328;2022-08-21T10:24:14;5.28;;;1.20;;
22363;SDS011;11349;53.412;-1.328;2022-08-21T10:26:54;6.88;;;1.73;;
22363;SDS011;11349;53.412;-1.328;2022-08-21T10:40:07;3.85;;;1.30;;
22363;SDS011;11349;53.412;-1.328;2022-08-21T10:42:36;8.00;;;1.70;;
22363;SDS011;11349;53.412;-1.328;2022-08-21T10:47:49;6.82;;;1.58;;
22363;SDS011;11349;53.412;-1.328;2022-08-21T10:58:37;3.80;;;0.93;;
22363;SDS011;11349;53.412;-1.328;2022-08-21T11:04:07;5.80;;;1.60;;
22363;SDS011;11349;53.412;-1.328;2022-08-21T11:06:37;5.90;;;1.60;;
22363;SDS011;11349;53.412;-1.328;2022-08-21T11:09:13;4.60;;;1.35;;
22363;SDS011;11349;53.412;-1.328;2022-08-21T11:11:56;6.03;;;1.30;;
22363;SDS011;11349;53.412;-1.328;2022-08-21T11:17:22;6.75;;;1.40;;
22363;SDS011;11349;53.412;-1.328;2022-08-21T11:25:55;4.80;;;1.35;;
22363;SDS011;11349;53.412;-1.328;2022-08-21T11:28:38;6.05;;;1.20;;
22363;SDS011;11349;53.412;-1.328;2022-08-21T11:34:37;6.00;;;1.75;;
22363;SDS011;11349;53.412;-1.328;2022-08-21T11:39:58;5.60;;;1.70;;
22363;SDS011;11349;53.412;-1.328;2022-08-21T11:51:50;4.80;;;1.40;;
22363;SDS011;11349;53.412;-1.328;2022-08-21T11:57:21;4.55;;;1.33;;
22363;SDS011;11349;53.412;-1.328;2022-08-21T12:00:01;7.55;;;1.67;;
22363;SDS011;11349;53.412;-1.328;2022-08-21T12:02:46;7.18;;;1.33;;
22363;SDS011;11349;53.412;-1.328;2022-08-21T12:05:23;3.75;;;1.40;;
22363;SDS011;11349;53.412;-1.328;2022-08-21T12:10:36;4.03;;;1.45;;
22363;SDS011;11349;53.412;-1.328;2022-08-21T12:13:09;6.00;;;1.52;;
22363;SDS011;11349;53.412;-1.328;2022-08-21T12:15:39;4.80;;;1.60;;
22363;SDS011;11349;53.412;-1.328;2022-08-21T12:18:06;5.60;;;1.42;;
22363;SDS011;11349;53.412;-1.328;2022-08-21T12:20:57;5.70;;;1.73;;
22363;SDS011;11349;53.412;-1.328;2022-08-21T12:23:49;4.68;;;1.42;;
22363;SDS011;11349;53.412;-1.328;2022-08-21T12:26:31;5.07;;;1.40;;
22363;SDS011;11349;53.412;-1.328;2022-08-21T12:29:28;3.63;;;1.10;;
22363;SDS011;11349;53.412;-1.328;2022-08-21T12:31:58;4.05;;;1.20;;
22363;SDS011;11349;53.412;-1.328;2022-08-21T12:34:35;4.95;;;1.30;;
22363;SDS011;11349;53.412;-1.328;2022-08-21T12:37:19;4.72;;;1.27;;
22363;SDS011;11349;53.412;-1.328;2022-08-21T12:39:51;5.53;;;1.60;;
22363;SDS011;11349;53.412;-1.328;2022-08-21T12:42:28;4.22;;;1.42;;
22363;SDS011;11349;53.412;-1.328;2022-08-21T12:45:04;3.08;;;1.10;;
22363;SDS011;11349;53.412;-1.328;2022-08-21T12:47:48;3.58;;;1.25;;
22363;SDS011;11349;53.412;-1.328;2022-08-21T12:50:44;8.02;;;1.50;;
22363;SDS011;11349;53.412;-1.328;2022-08-21T12:55:55;5.00;;;1.05;;
22363;SDS011;11349;53.412;-1.328;2022-08-21T12:58:26;4.95;;;1.27;;
22363;SDS011;11349;53.412;-1.328;2022-08-21T13:00:54;5.93;;;1.17;;
22363;SDS011;11349;53.412;-1.328;2022-08-21T13:03:33;10.00;;;1.77;;
22363;SDS011;11349;53.412;-1.328;2022-08-21T13:06:03;4.03;;;1.30;;
22363;SDS011;11349;53.412;-1.328;2022-08-21T13:08:30;6.30;;;1.48;;
22363;SDS011;11349;53.412;-1.328;2022-08-21T13:11:00;2.75;;;1.05;;
22363;SDS011;11349;53.412;-1.328;2022-08-21T13:13:30;3.15;;;1.30;;
22363;SDS011;11349;53.412;-1.328;2022-08-21T13:15:56;5.47;;;1.52;;
22363;SDS011;11349;53.412;-1.328;2022-08-21T13:18:25;4.38;;;1.00;;
22363;SDS011;11349;53.412;-1.328;2022-08-21T13:21:02;4.30;;;1.05;;
22363;SDS011;11349;53.412;-1.328;2022-08-21T13:23:39;5.30;;;1.38;;
22363;SDS011;11349;53.412;-1.328;2022-08-21T13:26:15;3.08;;;1.08;;
22363;SDS011;11349;53.412;-1.328;2022-08-21T13:28:44;5.30;;;1.50;;
22363;SDS011;11349;53.412;-1.328;2022-08-21T13:31:13;5.20;;;1.30;;
22363;SDS011;11349;53.412;-1.328;2022-08-21T13:33:51;5.13;;;1.10;;
22363;SDS011;11349;53.412;-1.328;2022-08-21T13:36:54;4.93;;;1.23;;
22363;SDS011;11349;53.412;-1.328;2022-08-21T13:39:12;3.05;;;1.30;;
22363;SDS011;11349;53.412;-1.328;2022-08-21T13:41:43;3.33;;;1.38;;
22363;SDS011;11349;53.412;-1.328;2022-08-21T13:44:18;4.80;;;1.48;;
22363;SDS011;11349;53.412;-1.328;2022-08-21T13:46:56;4.80;;;1.13;;
22363;SDS011;11349;53.412;-1.328;2022-08-21T13:49:57;3.90;;;1.15;;
22363;SDS011;11349;53.412;-1.328;2022-08-21T13:52:24;4.40;;;1.40;;
22363;SDS011;11349;53.412;-1.328;2022-08-21T13:54:53;4.88;;;1.65;;
22363;SDS011;11349;53.412;-1.328;2022-08-21T13:57:33;4.05;;;1.27;;
22363;SDS011;11349;53.412;-1.328;2022-08-21T14:02:44;5.45;;;1.40;;
22363;SDS011;11349;53.412;-1.328;2022-08-21T14:05:26;5.97;;;1.30;;
22363;SDS011;11349;53.412;-1.328;2022-08-21T14:08:13;4.15;;;1.15;;
22363;SDS011;11349;53.412;-1.328;2022-08-21T14:10:49;7.10;;;1.23;;
22363;SDS011;11349;53.412;-1.328;2022-08-21T14:13:28;3.92;;;1.65;;
22363;SDS011;11349;53.412;-1.328;2022-08-21T14:16:00;4.47;;;1.05;;
22363;SDS011;11349;53.412;-1.328;2022-08-21T14:18:27;3.13;;;1.08;;
22363;SDS011;11349;53.412;-1.328;2022-08-21T14:21:04;3.72;;;1.30;;
22363;SDS011;11349;53.412;-1.328;2022-08-21T14:23:31;3.88;;;1.10;;
22363;SDS011;11349;53.412;-1.328;2022-08-21T14:26:01;3.50;;;1.00;;
22363;SDS011;11349;53.412;-1.328;2022-08-21T14:28:34;2.95;;;1.20;;
22363;SDS011;11349;53.412;-1.328;2022-08-21T14:31:12;6.32;;;1.27;;
22363;SDS011;11349;53.412;-1.328;2022-08-21T14:33:44;4.05;;;1.40;;
22363;SDS011;11349;53.412;-1.328;2022-08-21T14:36:10;5.40;;;1.60;;
22363;SDS011;11349;53.412;-1.328;2022-08-21T14:38:37;5.90;;;1.23;;
22363;SDS011;11349;53.412;-1.328;2022-08-21T14:41:08;3.92;;;0.98;;
22363;SDS011;11349;53.412;-1.328;2022-08-21T14:43:41;3.13;;;0.98;;
22363;SDS011;11349;53.412;-1.328;2022-08-21T14:46:08;3.72;;;0.90;;
22363;SDS011;11349;53.412;-1.328;2022-08-21T14:48:34;3.83;;;1.15;;
22363;SDS011;11349;53.412;-1.328;2022-08-21T14:51:00;3.88;;;1.25;;
22363;SDS011;11349;53.412;-1.328;2022-08-21T14:53:25;2.88;;;0.82;;
22363;SDS011;11349;53.412;-1.328;2022-08-21T14:55:51;3.80;;;0.90;;
22363;SDS011;11349;53.412;-1.328;2022-08-21T14:58:32;3.45;;;1.00;;
22363;SDS011;11349;53.412;-1.328;2022-08-21T15:01:06;3.13;;;0.95;;
22363;SDS011;11349;53.412;-1.328;2022-08-21T15:03:34;2.78;;;0.80;;
22363;SDS011;11349;53.412;-1.328;2022-08-21T15:06:01;3.35;;;1.10;;
22363;SDS011;11349;53.412;-1.328;2022-08-21T15:08:28;2.95;;;1.30;;
22363;SDS011;11349;53.412;-1.328;2022-08-21T15:10:54;4.07;;;0.85;;
22363;SDS011;11349;53.412;-1.328;2022-08-21T15:13:21;3.10;;;1.02;;
22363;SDS011;11349;53.412;-1.328;2022-08-21T15:15:48;3.75;;;0.80;;
22363;SDS011;11349;53.412;-1.328;2022-08-21T15:18:17;4.05;;;1.00;;
22363;SDS011;11349;53.412;-1.328;2022-08-21T15:20:46;3.47;;;0.80;;
22363;SDS011;11349;53.412;-1.328;2022-08-21T15:23:12;3.85;;;1.00;;
22363;SDS011;11349;53.412;-1.328;2022-08-21T15:25:40;3.00;;;0.80;;
22363;SDS011;11349;53.412;-1.328;2022-08-21T15:28:07;3.05;;;0.77;;
22363;SDS011;11349;53.412;-1.328;2022-08-21T15:30:33;5.07;;;1.58;;
22363;SDS011;11349;53.412;-1.328;2022-08-21T15:33:00;4.90;;;1.08;;
22363;SDS011;11349;53.412;-1.328;2022-08-21T15:35:26;4.60;;;1.00;;
22363;SDS011;11349;53.412;-1.328;2022-08-21T15:37:51;2.63;;;0.95;;
22363;SDS011;11349;53.412;-1.328;2022-08-21T15:40:17;5.63;;;1.30;;
22363;SDS011;11349;53.412;-1.328;2022-08-21T15:42:43;3.38;;;0.90;;
22363;SDS011;11349;53.412;-1.328;2022-08-21T15:45:12;4.93;;;1.02;;
22363;SDS011;11349;53.412;-1.328;2022-08-21T15:47:39;2.33;;;0.70;;
22363;SDS011;11349;53.412;-1.328;2022-08-21T15:50:09;4.47;;;1.08;;
22363;SDS011;11349;53.412;-1.328;2022-08-21T15:52:35;3.92;;;0.98;;
22363;SDS011;11349;53.412;-1.328;2022-08-21T15:55:02;3.50;;;0.98;;
22363;SDS011;11349;53.412;-1.328;2022-08-21T15:57:29;4.60;;;1.48;;
22363;SDS011;11349;53.412;-1.328;2022-08-21T16:00:00;3.05;;;0.75;;
22363;SDS011;11349;53.412;-1.328;2022-08-21T16:02:36;3.33;;;1.10;;
22363;SDS011;11349;53.412;-1.328;2022-08-21T16:05:02;3.60;;;1.38;;
22363;SDS011;11349;53.412;-1.328;2022-08-21T16:07:28;5.07;;;1.42;;
22363;SDS011;11349;53.412;-1.328;2022-08-21T16:09:53;5.20;;;1.48;;
22363;SDS011;11349;53.412;-1.328;2022-08-21T16:12:21;3.58;;;1.20;;
22363;SDS011;11349;53.412;-1.328;2022-08-21T16:14:52;3.63;;;1.25;;
22363;SDS011;11349;53.412;-1.328;2022-08-21T16:17:19;2.50;;;0.95;;
22363;SDS011;11349;53.412;-1.328;2022-08-21T16:19:48;5.05;;;1.00;;
22363;SDS011;11349;53.412;-1.328;2022-08-21T16:22:14;3.47;;;0.98;;
22363;SDS011;11349;53.412;-1.328;2022-08-21T16:24:40;4.75;;;1.35;;